createdAt,value
2022-09-18T00:01:38.101Z,87.72
2022-09-18T00:04:09.245Z,87.57
2022-09-18T00:06:40.045Z,87.50
2022-09-18T00:09:10.300Z,87.71
2022-09-18T00:11:40.149Z,88.43
2022-09-18T00:14:10.032Z,88.34
2022-09-18T00:16:39.292Z,88.80
2022-09-18T00:19:09.400Z,88.98
2022-09-18T00:21:37.676Z,89.58
2022-09-18T00:24:06.200Z,89.48
2022-09-18T00:26:35.469Z,90.23
2022-09-18T00:29:03.900Z,88.78
2022-09-18T00:31:33.524Z,88.69
2022-09-18T00:34:04.041Z,88.92
2022-09-18T00:36:33.341Z,88.83
2022-09-18T00:39:02.510Z,87.85
2022-09-18T00:41:32.587Z,88.38
2022-09-18T00:44:31.745Z,88.27
2022-09-18T00:47:04.631Z,89.20
2022-09-18T00:49:33.366Z,88.62
2022-09-18T00:52:03.629Z,87.72
2022-09-18T00:54:34.382Z,88.80
2022-09-18T00:57:05.909Z,87.70
2022-09-18T00:59:35.781Z,88.56
2022-09-18T01:02:04.498Z,87.61
2022-09-18T01:04:33.306Z,87.46
2022-09-18T01:07:08.764Z,87.06
2022-09-18T01:09:44.468Z,86.27
2022-09-18T01:12:20.651Z,86.91
2022-09-18T01:14:54.616Z,86.56
2022-09-18T01:17:27.355Z,86.22
2022-09-18T01:20:27.458Z,87.23
2022-09-18T01:23:12.573Z,87.77
2022-09-18T01:25:51.957Z,87.14
2022-09-18T01:28:26.751Z,87.41
2022-09-18T01:30:58.527Z,87.42
2022-09-18T01:33:32.364Z,88.02
2022-09-18T01:36:04.149Z,87.91
2022-09-18T01:38:36.025Z,87.33
2022-09-18T01:41:10.887Z,87.22
2022-09-18T01:43:40.896Z,87.63
2022-09-18T01:46:12.878Z,87.39
2022-09-18T01:48:44.885Z,87.40
2022-09-18T01:51:16.534Z,86.37
2022-09-18T01:53:47.903Z,86.82
2022-09-18T01:56:20.820Z,87.56
2022-09-18T01:58:52.609Z,87.62
2022-09-18T02:01:23.488Z,87.26
2022-09-18T02:03:54.958Z,87.36
2022-09-18T02:06:26.471Z,87.58
2022-09-18T02:08:56.863Z,87.74
2022-09-18T02:11:25.496Z,87.57
2022-09-18T02:13:59.009Z,87.63
2022-09-18T02:16:44.115Z,87.41
2022-09-18T02:19:18.308Z,87.14
2022-09-18T02:21:48.393Z,87.61
2022-09-18T02:24:18.566Z,86.94
2022-09-18T02:26:48.097Z,87.25
2022-09-18T02:29:18.728Z,87.13
2022-09-18T02:31:46.977Z,87.65
2022-09-18T02:34:15.230Z,87.36
2022-09-18T02:36:56.998Z,87.28
2022-09-18T02:39:36.547Z,87.28
2022-09-18T02:42:15.280Z,86.97
2022-09-18T02:44:50.499Z,87.34
2022-09-18T02:47:30.392Z,87.67
2022-09-18T02:50:07.685Z,87.42
2022-09-18T02:52:41.062Z,87.28
2022-09-18T02:55:11.803Z,87.66
2022-09-18T02:57:45.319Z,87.82
2022-09-18T03:00:18.703Z,87.79
2022-09-18T03:02:51.148Z,88.64
2022-09-18T03:05:31.671Z,89.05
2022-09-18T03:08:02.597Z,88.94
2022-09-18T03:10:31.837Z,89.24
2022-09-18T03:12:59.798Z,89.48
2022-09-18T03:15:29.076Z,88.97
2022-09-18T03:17:58.165Z,89.74
2022-09-18T03:20:26.225Z,89.76
2022-09-18T03:22:54.306Z,91.36
2022-09-18T03:25:22.278Z,90.22
2022-09-18T03:27:50.428Z,90.16
2022-09-18T03:30:26.853Z,91.29
2022-09-18T03:32:56.481Z,91.55
2022-09-18T03:35:24.502Z,92.10
2022-09-18T03:37:52.624Z,91.74
2022-09-18T03:40:23.320Z,91.94
2022-09-18T03:42:51.853Z,92.69
2022-09-18T03:45:20.040Z,92.38
2022-09-18T03:47:48.764Z,92.63
2022-09-18T03:50:18.405Z,92.24
2022-09-18T03:52:50.492Z,92.36
2022-09-18T03:55:37.921Z,92.59
2022-09-18T03:58:25.969Z,92.97
2022-09-18T04:01:13.630Z,92.52
2022-09-18T04:04:01.567Z,91.19
2022-09-18T04:07:03.925Z,91.85
2022-09-18T04:09:43.829Z,91.59
2022-09-18T04:12:12.107Z,91.57
2022-09-18T04:14:40.564Z,91.09
2022-09-18T04:17:08.935Z,91.46
2022-09-18T04:19:36.886Z,90.70
2022-09-18T04:22:06.261Z,90.51
2022-09-18T04:24:35.378Z,90.58
2022-09-18T04:27:07.639Z,90.77
2022-09-18T04:29:35.851Z,91.15
2022-09-18T04:32:05.474Z,90.56
2022-09-18T04:34:33.495Z,90.81
2022-09-18T04:37:01.586Z,91.22
2022-09-18T04:39:33.631Z,91.49
2022-09-18T04:42:04.813Z,91.03
2022-09-18T04:44:33.283Z,90.44
2022-09-18T04:47:01.376Z,90.04
2022-09-18T04:49:29.353Z,90.44
2022-09-18T04:51:57.368Z,89.70
2022-09-18T04:54:25.703Z,89.72
2022-09-18T04:56:55.060Z,89.95
2022-09-18T04:59:22.961Z,89.59
2022-09-18T05:01:55.811Z,89.23
2022-09-18T05:04:48.890Z,89.90
2022-09-18T05:07:27.660Z,89.83
2022-09-18T05:09:56.157Z,90.02
2022-09-18T05:12:25.448Z,89.93
2022-09-18T05:14:53.488Z,89.60
2022-09-18T05:17:21.522Z,88.91
2022-09-18T05:20:05.650Z,89.80
2022-09-18T05:22:39.003Z,89.64
2022-09-18T05:25:11.464Z,89.93
2022-09-18T05:27:40.843Z,89.37
2022-09-18T05:30:11.190Z,89.09
2022-09-18T05:32:59.151Z,89.07
2022-09-18T05:35:29.689Z,90.04
2022-09-18T05:37:59.352Z,88.13
2022-09-18T05:40:31.013Z,87.75
2022-09-18T05:43:03.045Z,89.02
2022-09-18T05:45:33.692Z,88.54
2022-09-18T05:48:06.070Z,88.33
2022-09-18T05:50:36.404Z,87.29
2022-09-18T05:53:07.006Z,87.68
2022-09-18T05:55:44.122Z,87.49
2022-09-18T05:58:15.379Z,87.17
2022-09-18T06:00:44.746Z,87.48
2022-09-18T06:03:19.625Z,87.31
2022-09-18T06:05:53.558Z,87.05
2022-09-18T06:08:22.729Z,87.56
2022-09-18T06:10:50.833Z,88.29
2022-09-18T06:13:20.312Z,88.13
2022-09-18T06:15:52.904Z,87.73
2022-09-18T06:18:35.619Z,87.79
2022-09-18T06:21:04.721Z,88.73
2022-09-18T06:23:32.783Z,89.23
2022-09-18T06:26:09.437Z,88.78
2022-09-18T06:28:42.504Z,88.45
2022-09-18T06:31:11.158Z,89.16
2022-09-18T06:34:01.924Z,88.64
2022-09-18T06:36:29.866Z,88.47
2022-09-18T06:39:04.951Z,89.31
2022-09-18T06:41:33.686Z,88.08
2022-09-18T06:44:06.981Z,88.76
2022-09-18T06:46:43.486Z,87.80
2022-09-18T06:49:23.541Z,88.14
2022-09-18T06:51:51.533Z,88.00
2022-09-18T06:54:19.504Z,87.39
2022-09-18T06:56:47.994Z,88.75
2022-09-18T06:59:19.562Z,88.24
2022-09-18T07:01:48.634Z,87.92
2022-09-18T07:04:21.884Z,88.46
2022-09-18T07:06:50.223Z,88.59
2022-09-18T07:09:18.868Z,89.24
2022-09-18T07:12:01.357Z,88.61
2022-09-18T07:14:38.006Z,87.69
2022-09-18T07:17:18.227Z,88.50
2022-09-18T07:19:49.871Z,87.75
2022-09-18T07:22:20.145Z,87.45
2022-09-18T07:24:48.841Z,88.35
2022-09-18T07:27:17.078Z,87.73
2022-09-18T07:29:50.275Z,87.08
2022-09-18T07:32:20.506Z,87.26
2022-09-18T07:34:49.989Z,86.91
2022-09-18T07:37:25.480Z,87.51
2022-09-18T07:40:09.516Z,87.40
2022-09-18T07:43:15.936Z,87.85
2022-09-18T07:45:52.749Z,87.01
2022-09-18T07:48:21.578Z,87.61
2022-09-18T07:50:51.992Z,88.13
2022-09-18T07:53:21.348Z,87.23
2022-09-18T07:55:53.373Z,88.35
2022-09-18T07:58:21.396Z,88.10
2022-09-18T08:01:00.628Z,87.38
2022-09-18T08:03:29.411Z,87.70
2022-09-18T08:06:20.593Z,87.94
2022-09-18T08:09:05.812Z,88.30
2022-09-18T08:11:54.185Z,89.11
2022-09-18T08:14:31.652Z,88.76
2022-09-18T08:17:21.196Z,88.42
2022-09-18T08:20:04.368Z,88.92
2022-09-18T08:22:46.855Z,89.08
2022-09-18T08:25:15.946Z,88.24
2022-09-18T08:27:48.723Z,89.27
2022-09-18T08:30:23.026Z,88.38
2022-09-18T08:33:00.465Z,88.45
2022-09-18T08:35:28.900Z,89.87
2022-09-18T08:38:02.280Z,88.54
2022-09-18T08:40:59.815Z,87.70
2022-09-18T08:43:46.049Z,88.16
2022-09-18T08:46:17.195Z,88.10
2022-09-18T08:48:53.638Z,87.89
2022-09-18T08:51:26.048Z,88.11
2022-09-18T08:53:58.731Z,87.93
2022-09-18T08:56:37.097Z,88.32
2022-09-18T08:59:18.119Z,89.16
2022-09-18T09:01:53.406Z,88.33
2022-09-18T09:04:25.505Z,88.50
2022-09-18T09:07:02.863Z,89.16
2022-09-18T09:09:47.327Z,88.87
2022-09-18T09:12:44.803Z,88.51
2022-09-18T09:15:21.701Z,89.43
2022-09-18T09:17:59.642Z,88.46
2022-09-18T09:20:37.562Z,88.82
2022-09-18T09:23:16.252Z,89.17
2022-09-18T09:25:50.831Z,88.78
2022-09-18T09:28:30.606Z,88.15
2022-09-18T09:31:36.207Z,89.06
2022-09-18T09:34:40.956Z,89.30
2022-09-18T09:37:40.978Z,89.73
2022-09-18T09:40:15.714Z,90.57
2022-09-18T09:42:46.610Z,90.67
2022-09-18T09:45:16.898Z,89.85
2022-09-18T09:47:46.991Z,90.10
2022-09-18T09:50:27.420Z,90.21
2022-09-18T09:52:59.270Z,89.78
2022-09-18T09:55:29.865Z,91.35
2022-09-18T09:58:06.526Z,92.00
2022-09-18T10:00:37.828Z,90.99
2022-09-18T10:03:24.641Z,90.00
2022-09-18T10:05:58.890Z,89.70
2022-09-18T10:08:34.487Z,90.67
2022-09-18T10:11:08.786Z,89.87
2022-09-18T10:13:41.359Z,90.63
2022-09-18T10:16:13.935Z,90.56
2022-09-18T10:18:44.382Z,89.79
2022-09-18T10:21:14.892Z,89.63
2022-09-18T10:23:46.250Z,89.26
2022-09-18T10:26:20.384Z,88.02
2022-09-18T10:28:48.756Z,88.53
2022-09-18T10:31:18.054Z,88.62
2022-09-18T10:33:53.113Z,88.36
2022-09-18T10:36:30.199Z,87.73
2022-09-18T10:39:18.173Z,87.30
2022-09-18T10:41:47.718Z,87.42
2022-09-18T10:44:22.483Z,85.54
2022-09-18T10:47:00.302Z,85.91
2022-09-18T10:49:32.596Z,86.27
2022-09-18T10:52:22.587Z,86.56
2022-09-18T10:55:17.476Z,83.94
2022-09-18T10:58:08.296Z,84.33
2022-09-18T11:00:43.142Z,83.55
2022-09-18T11:03:20.942Z,84.33
2022-09-18T11:05:52.598Z,84.99
2022-09-18T11:08:23.708Z,84.06
2022-09-18T11:10:59.170Z,84.08
2022-09-18T11:13:28.676Z,83.94
2022-09-18T11:15:58.523Z,84.64
2022-09-18T11:18:29.106Z,84.50
2022-09-18T11:20:58.441Z,84.81
2022-09-18T11:23:28.996Z,85.11
2022-09-18T11:26:19.363Z,84.59
2022-09-18T11:29:03.311Z,84.67
2022-09-18T11:31:41.035Z,84.27
2022-09-18T11:34:20.445Z,85.27
2022-09-18T11:36:51.119Z,84.30
2022-09-18T11:39:24.735Z,83.19
2022-09-18T11:41:56.685Z,82.75
2022-09-18T11:44:27.715Z,83.07
2022-09-18T11:47:23.927Z,81.64
2022-09-18T11:49:56.933Z,79.52
2022-09-18T11:52:29.137Z,81.54
2022-09-18T11:55:05.530Z,80.82
2022-09-18T11:57:38.399Z,80.83
2022-09-18T12:00:11.476Z,81.92
2022-09-18T12:02:51.108Z,81.46
2022-09-18T12:05:23.673Z,83.50
2022-09-18T12:07:59.575Z,83.97
2022-09-18T12:10:39.891Z,82.97
2022-09-18T12:13:24.914Z,83.36
2022-09-18T12:15:59.104Z,82.76
2022-09-18T12:18:29.558Z,82.78
2022-09-18T12:21:00.852Z,82.83
2022-09-18T12:23:29.847Z,81.97
2022-09-18T12:26:07.888Z,82.24
2022-09-18T12:28:55.337Z,82.06
2022-09-18T12:31:30.156Z,81.71
2022-09-18T12:34:02.433Z,81.70
2022-09-18T12:36:41.255Z,81.06
2022-09-18T12:39:23.931Z,80.30
2022-09-18T12:42:00.967Z,79.49
2022-09-18T12:44:54.852Z,78.43
2022-09-18T12:47:34.474Z,78.68
2022-09-18T12:50:15.370Z,76.50
2022-09-18T12:53:08.212Z,77.21
2022-09-18T12:55:50.512Z,76.87
2022-09-18T12:58:39.772Z,77.12
2022-09-18T13:01:27.282Z,75.95
2022-09-18T13:03:57.383Z,76.10
2022-09-18T13:06:31.481Z,76.49
2022-09-18T13:09:02.573Z,76.77
2022-09-18T13:11:33.890Z,76.70
2022-09-18T13:14:05.193Z,76.62
2022-09-18T13:16:37.957Z,74.86
2022-09-18T13:19:10.710Z,75.60
2022-09-18T13:21:41.777Z,74.30
2022-09-18T13:24:13.523Z,74.86
2022-09-18T13:26:42.615Z,73.72
2022-09-18T13:29:43.906Z,73.46
2022-09-18T13:32:14.038Z,71.17
2022-09-18T13:34:51.309Z,72.41
2022-09-18T13:37:22.742Z,73.66
2022-09-18T13:40:09.182Z,75.16
2022-09-18T13:42:40.491Z,73.19
2022-09-18T13:45:18.730Z,72.45
2022-09-18T13:48:04.623Z,73.32
2022-09-18T13:50:33.864Z,73.11
2022-09-18T13:53:03.995Z,71.94
2022-09-18T13:55:38.502Z,72.38
2022-09-18T13:58:39.216Z,71.18
2022-09-18T14:01:08.311Z,71.61
2022-09-18T14:04:49.842Z,70.51
2022-09-18T14:07:45.292Z,69.89
2022-09-18T14:10:24.214Z,69.98
2022-09-18T14:13:37.587Z,71.46
2022-09-18T14:16:12.874Z,70.90
2022-09-18T14:18:56.264Z,69.41
2022-09-18T14:21:48.797Z,69.40
2022-09-18T14:24:40.592Z,71.51
2022-09-18T14:27:34.330Z,70.58
2022-09-18T14:30:11.876Z,68.22
2022-09-18T14:32:40.340Z,67.52
2022-09-18T14:35:29.947Z,69.55
2022-09-18T14:37:57.952Z,68.50
2022-09-18T14:40:28.368Z,67.74
2022-09-18T14:42:56.486Z,68.10
2022-09-18T14:45:28.163Z,67.94
2022-09-18T14:47:56.636Z,68.30
2022-09-18T14:50:28.803Z,67.51
2022-09-18T14:52:58.040Z,68.39
2022-09-18T14:55:35.192Z,69.32
2022-09-18T14:58:06.553Z,68.87
2022-09-18T15:00:36.431Z,68.85
2022-09-18T15:03:07.881Z,68.56
2022-09-18T15:05:36.377Z,68.16
2022-09-18T15:08:29.135Z,69.84
2022-09-18T15:10:59.517Z,69.40
2022-09-18T15:13:29.069Z,67.88
2022-09-18T15:16:01.856Z,66.37
2022-09-18T15:18:31.356Z,68.30
2022-09-18T15:21:01.907Z,66.13
2022-09-18T15:23:31.191Z,65.19
2022-09-18T15:26:03.600Z,65.33
2022-09-18T15:28:33.842Z,64.01
2022-09-18T15:31:04.819Z,64.76
2022-09-18T15:33:35.051Z,62.86
2022-09-18T15:36:04.967Z,64.03
2022-09-18T15:38:42.925Z,65.54
2022-09-18T15:41:35.876Z,62.94
2022-09-18T15:44:04.011Z,62.89
2022-09-18T15:46:34.121Z,63.40
2022-09-18T15:49:04.240Z,61.55
2022-09-18T15:51:33.755Z,62.34
2022-09-18T15:54:24.061Z,61.76
2022-09-18T15:56:54.900Z,63.47
2022-09-18T15:59:28.999Z,62.63
2022-09-18T16:01:57.866Z,63.68
2022-09-18T16:04:28.572Z,63.74
2022-09-18T16:07:01.825Z,64.05
2022-09-18T16:09:38.233Z,63.98
2022-09-18T16:12:39.906Z,61.77
2022-09-18T16:15:20.167Z,63.36
2022-09-18T16:18:04.422Z,63.47
2022-09-18T16:20:38.259Z,62.77
2022-09-18T16:23:21.004Z,63.56
2022-09-18T16:26:08.379Z,64.07
2022-09-18T16:28:42.640Z,63.74
2022-09-18T16:31:12.077Z,63.92
2022-09-18T16:33:50.208Z,64.61
2022-09-18T16:36:27.437Z,63.96
2022-09-18T16:38:55.680Z,64.36
2022-09-18T16:41:23.746Z,63.82
2022-09-18T16:43:53.930Z,64.27
2022-09-18T16:46:23.815Z,65.00
2022-09-18T16:48:52.302Z,64.32
2022-09-18T16:51:21.910Z,64.28
2022-09-18T16:53:50.630Z,64.76
2022-09-18T16:56:22.278Z,64.33
2022-09-18T16:58:52.918Z,64.70
2022-09-18T17:01:23.188Z,64.19
2022-09-18T17:03:51.662Z,65.14
2022-09-18T17:06:19.788Z,65.74
2022-09-18T17:08:48.289Z,64.86
2022-09-18T17:11:16.284Z,64.64
2022-09-18T17:13:44.289Z,65.44
2022-09-18T17:16:26.104Z,65.44
2022-09-18T17:19:01.996Z,66.13
2022-09-18T17:21:30.087Z,66.00
2022-09-18T17:23:58.132Z,66.48
2022-09-18T17:26:28.519Z,64.87
2022-09-18T17:28:56.792Z,65.73
2022-09-18T17:31:26.506Z,67.42
2022-09-18T17:33:55.261Z,66.76
2022-09-18T17:36:23.865Z,66.57
2022-09-18T17:38:52.370Z,66.87
2022-09-18T17:41:21.451Z,67.30
2022-09-18T17:43:52.327Z,67.25
2022-09-18T17:46:20.968Z,66.68
2022-09-18T17:48:54.454Z,67.14
2022-09-18T17:51:27.669Z,68.06
2022-09-18T17:53:58.812Z,67.45
2022-09-18T17:56:29.890Z,66.71
2022-09-18T17:58:59.863Z,64.34
2022-09-18T18:01:29.306Z,66.46
2022-09-18T18:03:58.742Z,66.67
2022-09-18T18:06:26.982Z,66.86
2022-09-18T18:08:56.110Z,66.12
2022-09-18T18:11:25.249Z,65.42
2022-09-18T18:13:54.479Z,64.57
2022-09-18T18:16:24.183Z,65.34
2022-09-18T18:18:57.281Z,65.27
2022-09-18T18:21:27.596Z,65.52
2022-09-18T18:23:56.914Z,65.97
2022-09-18T18:26:25.477Z,65.50
2022-09-18T18:28:55.493Z,66.31
2022-09-18T18:31:25.645Z,65.11
2022-09-18T18:33:54.880Z,66.11
2022-09-18T18:36:24.565Z,65.72
2022-09-18T18:38:56.099Z,66.26
2022-09-18T18:41:25.727Z,66.72
2022-09-18T18:43:55.448Z,67.03
2022-09-18T18:46:25.233Z,65.97
2022-09-18T18:49:00.012Z,66.82
2022-09-18T18:51:28.681Z,66.92
2022-09-18T18:54:00.265Z,66.73
2022-09-18T18:56:28.282Z,66.33
2022-09-18T18:58:57.264Z,67.28
2022-09-18T19:01:25.853Z,67.13
2022-09-18T19:03:59.935Z,66.68
2022-09-18T19:06:28.748Z,67.11
2022-09-18T19:08:59.275Z,66.93
2022-09-18T19:11:28.791Z,67.71
2022-09-18T19:13:57.808Z,68.21
2022-09-18T19:16:27.164Z,67.09
2022-09-18T19:18:58.538Z,67.19
2022-09-18T19:21:27.337Z,67.68
2022-09-18T19:23:58.978Z,67.40
2022-09-18T19:26:29.703Z,66.05
2022-09-18T19:28:59.226Z,66.47
2022-09-18T19:31:28.277Z,66.49
2022-09-18T19:33:57.879Z,65.99
2022-09-18T19:36:28.267Z,66.26
2022-09-18T19:38:57.429Z,65.98
2022-09-18T19:41:33.071Z,65.48
2022-09-18T19:44:02.669Z,65.06
2022-09-18T19:46:55.805Z,64.85
2022-09-18T19:49:26.698Z,64.11
2022-09-18T19:51:55.762Z,64.75
2022-09-18T19:54:24.263Z,64.50
2022-09-18T19:56:53.632Z,65.95
2022-09-18T19:59:21.612Z,64.59
2022-09-18T20:01:49.652Z,63.88
2022-09-18T20:04:17.807Z,62.80
2022-09-18T20:06:45.831Z,62.28
2022-09-18T20:09:13.798Z,63.08
2022-09-18T20:11:45.338Z,63.27
2022-09-18T20:14:18.358Z,63.77
2022-09-18T20:16:46.391Z,63.23
2022-09-18T20:19:14.614Z,63.67
2022-09-18T20:21:43.433Z,64.53
2022-09-18T20:24:11.542Z,64.96
2022-09-18T20:26:39.600Z,65.14
2022-09-18T20:29:07.603Z,65.14
2022-09-18T20:31:37.160Z,65.77
2022-09-18T20:34:05.917Z,66.00
2022-09-18T20:36:34.027Z,66.47
2022-09-18T20:39:03.678Z,67.39
2022-09-18T20:41:31.774Z,68.16
2022-09-18T20:44:05.053Z,68.78
2022-09-18T20:46:37.118Z,69.77
2022-09-18T20:49:08.182Z,67.24
2022-09-18T20:51:36.711Z,69.35
2022-09-18T20:54:08.226Z,69.64
2022-09-18T20:56:41.371Z,69.71
2022-09-18T20:59:10.583Z,71.01
2022-09-18T21:02:03.490Z,71.49
2022-09-18T21:04:32.934Z,72.80
2022-09-18T21:07:01.676Z,73.39
2022-09-18T21:09:31.089Z,71.71
2022-09-18T21:11:59.168Z,74.80
2022-09-18T21:14:27.540Z,76.61
2022-09-18T21:16:56.037Z,76.68
2022-09-18T21:19:26.220Z,78.64
2022-09-18T21:21:55.841Z,79.56
2022-09-18T21:24:23.875Z,78.89
2022-09-18T21:26:51.901Z,78.43
2022-09-18T21:29:22.643Z,79.43
2022-09-18T21:31:52.011Z,80.27
2022-09-18T21:34:23.443Z,81.04
2022-09-18T21:36:52.069Z,82.52
2022-09-18T21:39:21.672Z,82.18
2022-09-18T21:41:53.171Z,82.17
2022-09-18T21:44:27.022Z,83.21
2022-09-18T21:47:01.973Z,84.63
2022-09-18T21:49:30.527Z,83.19
2022-09-18T21:52:00.100Z,83.08
2022-09-18T21:54:30.365Z,82.21
2022-09-18T21:56:58.528Z,83.39
2022-09-18T21:59:27.580Z,84.55
2022-09-18T22:01:55.797Z,84.01
2022-09-18T22:04:26.275Z,83.52
2022-09-18T22:06:55.618Z,83.36
2022-09-18T22:09:25.330Z,83.78
2022-09-18T22:11:55.837Z,84.23
2022-09-18T22:14:28.589Z,84.04
2022-09-18T22:16:56.609Z,83.88
2022-09-18T22:19:24.647Z,85.11
2022-09-18T22:21:53.107Z,86.72
2022-09-18T22:24:22.778Z,86.05
2022-09-18T22:26:52.750Z,86.33
2022-09-18T22:29:23.561Z,85.68
2022-09-18T22:31:52.047Z,86.05
2022-09-18T22:34:22.986Z,86.13
2022-09-18T22:36:51.239Z,86.68
2022-09-18T22:39:20.792Z,87.19
2022-09-18T22:41:49.173Z,86.85
2022-09-18T22:44:17.177Z,87.07
2022-09-18T22:46:47.269Z,87.16
2022-09-18T22:49:16.698Z,86.80
2022-09-18T22:51:45.344Z,87.95
2022-09-18T22:54:15.114Z,87.62
2022-09-18T22:56:46.257Z,87.58
2022-09-18T22:59:15.616Z,88.39
2022-09-18T23:01:47.762Z,88.48
2022-09-18T23:04:18.564Z,88.22
2022-09-18T23:06:47.287Z,88.81
2022-09-18T23:09:15.794Z,88.87
2022-09-18T23:11:44.785Z,89.49
2022-09-18T23:14:14.589Z,89.40
2022-09-18T23:16:42.724Z,90.31
2022-09-18T23:19:16.435Z,89.32
2022-09-18T23:21:44.533Z,90.44
2022-09-18T23:24:12.987Z,89.54
2022-09-18T23:26:42.757Z,88.91
2022-09-18T23:29:12.939Z,88.63
2022-09-18T23:31:42.650Z,89.30
2022-09-18T23:34:13.071Z,88.68
2022-09-18T23:36:44.107Z,87.95
2022-09-18T23:39:14.503Z,87.93
2022-09-18T23:41:43.335Z,88.61
2022-09-18T23:44:13.413Z,88.12
2022-09-18T23:46:42.017Z,87.95
2022-09-18T23:49:12.230Z,88.61
2022-09-18T23:51:46.088Z,89.13
2022-09-18T23:54:17.316Z,87.92
2022-09-18T23:56:45.965Z,88.82
2022-09-18T23:59:15.989Z,88.66
